Terminal Aerodrome Forecast
Issued by NWS Jackson, MS

Home | Current Version | Previous Version | Text Only | Print | Product List | Glossary On
Versions: 1 2 3 4 5 6 7 8 9 10 11 12 13 14
000
FTUS44 KJAN 242300
TAFMEI
TAF
KMEI 242320Z 2500/2524 18009KT P6SM SCT060
     FM250400 19013KT P6SM VCSH BKN050
     FM250700 21007KT 6SM BR OVC015
     FM251000 21005KT 4SM BR OVC007
     FM251400 29007KT P6SM SCT050 BKN250=

USA.gov is the U.S. government's official web portal to all federal, state and local government web resources and services.